LFTW/FNI METAR and TAF weather

Enter ICAO airport designator
Station Type Date Time Source
LFTW METAR 2022/06/26 07:00 UTC NOAA

LFTW 260700Z AUTO 11007KT 090V150 9999 BKN014 25/21 Q1012 NOSIG


Station Type Date Time Source
LFTW Decoded METAR 2022/06/26 07:00 UTC NOAA

Nimes / Garons, France (LFTW) 43-45N 004-25E 96M
Jun 26, 2022 - 03:00 AM EDT / 2022.06.26 0700 UTC
Wind: from the ESE (110 degrees) at 8 MPH (7 KT) (direction variable):0
Visibility: greater than 7 mile(s):0
Sky conditions: mostly cloudy
Temperature: 77 F (25 C)
Dew Point: 69 F (21 C)
Relative Humidity: 78%
Pressure (altimeter): 29.88 in. Hg (1012 hPa)
ob: LFTW 260700Z AUTO 11007KT 090V150 9999 BKN014 25/21 Q1012 NOSIG
cycle: 7

Station Type Date Time Source
LFTW TAF 2022/06/26 06:49 UTC NOAA

TAF
AMD LFTW 260640Z 2606/2703 12007KT 9999 BKN010
BECMG 2610/2612 20010KT CAVOK
BECMG 2622/2624 VRB03KT

Example: see airport list